Time;durP1;ratioP1;P1;durP2;ratioP2;P2;SDS_P1;SDS_P2;PMS_P1;PMS_P2;Temp;Humidity;BMP_temperature;BMP_pressure;BME280_temperature;BME280_humidity;BME280_pressure;Samples;Min_cycle;Max_cycle;Signal;HPM_P1;HPM_P2
2022/08/31 00:03:58;;;;;;;;;;;;;;;19.78;52.46;96981.50;30001;982;1881;-65
2022/08/31 00:04:31;;;;;;;;;;;;;;;19.78;51.34;96970.47;30001;982;1885;-60
2022/08/31 00:05:02;;;;;;;;;;;;;;;19.78;51.20;96970.47;30001;982;1859;-64
2022/08/31 00:05:33;;;;;;;;;;;;;;;19.78;51.53;96973.22;30001;983;1880;-65
2022/08/31 00:06:06;;;;;;;;;;;;;;;19.78;51.89;96972.44;30001;983;1880;-64
2022/08/31 00:06:37;;;;;;;;;;;;;;;19.78;52.27;96977.94;30001;983;1885;-63
2022/08/31 00:07:08;;;;;;;;;;;;;;;19.76;52.14;96970.03;30001;983;1880;-65
2022/08/31 00:07:39;;;;;;;;;;;;;;;19.76;51.88;96978.28;30001;983;1885;-65
2022/08/31 00:08:10;;;;;;;;;;;;;;;19.76;52.31;96975.53;30001;983;1881;-60
2022/08/31 00:08:40;;;;;;;;;;;;;;;19.75;52.23;96973.97;30001;983;1863;-64
2022/08/31 00:09:11;;;;;;;;;;;;;;;19.75;52.19;96973.97;30001;983;1876;-64
2022/08/31 00:09:42;;;;;;;;;;;;;;;19.76;51.93;96975.53;30001;983;1885;-65
2022/08/31 00:10:14;;;;;;;;;;;;;;;19.75;52.19;96974.72;30001;982;1859;-65
2022/08/31 00:10:46;;;;;;;;;;;;;;;19.77;51.85;96977.13;30001;982;1881;-63
2022/08/31 00:11:26;;;;;;;;;;;;;;;19.76;52.16;96975.53;30001;982;1881;-63
2022/08/31 00:11:57;;;;;;;;;;;;;;;19.77;51.75;96977.13;30001;982;1886;-65
2022/08/31 00:12:28;;;;;;;;;;;;;;;19.76;51.73;96970.03;30001;982;1881;-64
2022/08/31 00:12:59;;;;;;;;;;;;;;;19.78;51.55;96973.22;30001;982;1886;-65
2022/08/31 00:13:30;;;;;;;;;;;;;;;19.78;51.77;96975.19;30001;983;1859;-65
2022/08/31 00:14:03;;;;;;;;;;;;;;;19.78;51.61;96973.22;30001;983;1880;-65
2022/08/31 00:14:34;;;;;;;;;;;;;;;19.77;52.01;96971.62;30001;983;1881;-64
2022/08/31 00:15:05;;;;;;;;;;;;;;;19.77;52.06;96966.13;30001;983;1863;-63
2022/08/31 00:15:36;;;;;;;;;;;;;;;19.77;52.04;96974.38;30001;983;1876;-62
2022/08/31 00:16:08;;;;;;;;;;;;;;;19.77;52.34;96971.62;30001;983;1885;-65
2022/08/31 00:16:41;;;;;;;;;;;;;;;19.77;52.11;96971.62;30001;983;1881;-64
2022/08/31 00:17:11;;;;;;;;;;;;;;;19.77;52.30;96974.38;30001;983;1885;-64
2022/08/31 00:17:42;;;;;;;;;;;;;;;19.76;52.26;96975.53;30001;982;1881;-64
2022/08/31 00:18:13;;;;;;;;;;;;;;;19.77;52.47;96979.09;30001;982;1885;-65
2022/08/31 00:18:45;;;;;;;;;;;;;;;19.76;52.35;96970.03;30001;982;1859;-65
2022/08/31 00:19:17;;;;;;;;;;;;;;;19.77;52.69;96977.13;30001;982;1881;-63
2022/08/31 00:19:47;;;;;;;;;;;;;;;19.76;52.60;96981.03;30001;982;1881;-64
2022/08/31 00:20:19;;;;;;;;;;;;;;;19.76;52.67;96986.53;30001;982;1886;-64
2022/08/31 00:20:50;;;;;;;;;;;;;;;19.75;53.08;96984.97;30001;983;1880;-65
2022/08/31 00:21:24;;;;;;;;;;;;;;;19.73;52.76;96977.06;30001;983;1885;-65
2022/08/31 00:21:55;;;;;;;;;;;;;;;19.73;52.72;96985.31;30001;983;1859;-65
2022/08/31 00:22:26;;;;;;;;;;;;;;;19.73;52.69;96981.78;30001;983;1881;-64
2022/08/31 00:22:57;;;;;;;;;;;;;;;19.71;52.89;96981.31;30001;983;1881;-65
2022/08/31 00:23:28;;;;;;;;;;;;;;;19.70;52.64;96980.50;30001;983;1885;-65
2022/08/31 00:23:59;;;;;;;;;;;;;;;19.70;52.63;96977.75;30001;983;1859;-59
2022/08/31 00:24:30;;;;;;;;;;;;;;;19.71;52.60;96975.81;30001;983;1881;-63
2022/08/31 00:25:02;;;;;;;;;;;;;;;19.70;52.42;96974.22;30001;982;1881;-65
2022/08/31 00:25:33;;;;;;;;;;;;;;;19.70;52.50;96985.22;30001;982;1885;-65
2022/08/31 00:26:04;;;;;;;;;;;;;;;19.71;52.31;96981.31;30001;982;1859;-61
2022/08/31 00:26:35;;;;;;;;;;;;;;;19.72;52.17;96975.47;30001;982;1881;-62
2022/08/31 00:27:06;;;;;;;;;;;;;;;19.72;52.21;96980.97;30001;982;1859;-64
2022/08/31 00:27:37;;;;;;;;;;;;;;;19.72;53.19;96980.97;30001;982;1881;-61
2022/08/31 00:28:09;;;;;;;;;;;;;;;19.71;54.56;96987.62;30001;982;1881;-62
2022/08/31 00:28:40;;;;;;;;;;;;;;;19.69;54.42;96994.62;30001;983;1885;-64
2022/08/31 00:29:11;;;;;;;;;;;;;;;19.71;54.62;96995.06;30001;986;1880;-62
2022/08/31 00:29:42;;;;;;;;;;;;;;;19.72;55.27;96996.69;30001;983;1885;-64
2022/08/31 00:30:13;;;;;;;;;;;;;;;19.70;58.24;97007.25;30001;983;1881;-63
2022/08/31 00:30:46;;;;;;;;;;;;;;;19.61;57.33;97001.06;30001;983;1885;-64
2022/08/31 00:31:17;;;;;;;;;;;;;;;19.57;59.67;97016.66;30001;983;1881;-63
2022/08/31 00:31:48;;;;;;;;;;;;;;;19.50;61.16;97024.69;30001;983;1885;-63
2022/08/31 00:32:19;;;;;;;;;;;;;;;19.40;63.29;97013.00;30001;983;1859;-61
2022/08/31 00:32:50;;;;;;;;;;;;;;;19.32;64.44;97002.94;30001;982;1881;-64
2022/08/31 00:33:21;;;;;;;;;;;;;;;19.22;66.38;96989.66;30001;982;1881;-60
2022/08/31 00:33:52;;;;;;;;;;;;;;;19.14;66.63;96987.81;30001;982;1885;-63
2022/08/31 00:34:25;;;;;;;;;;;;;;;19.06;67.70;96992.28;30001;964;1818;-63
2022/08/31 00:34:57;;;;;;;;;;;;;;;18.96;66.52;96994.72;30001;983;1885;-62
2022/08/31 00:35:29;;;;;;;;;;;;;;;18.91;67.69;96995.75;30001;983;1880;-60
2022/08/31 00:36:00;;;;;;;;;;;;;;;18.86;67.49;96998.72;30001;983;1863;-62
2022/08/31 00:36:31;;;;;;;;;;;;;;;18.83;68.15;97004.91;30001;983;1876;-63
2022/08/31 00:37:03;;;;;;;;;;;;;;;18.79;71.16;97003.19;30001;983;1885;-62
2022/08/31 00:37:34;;;;;;;;;;;;;;;18.67;72.64;97010.31;30001;983;1881;-61
2022/08/31 00:38:06;;;;;;;;;;;;;;;18.59;72.87;97011.19;30001;983;1885;-62
2022/08/31 00:38:41;;;;;;;;;;;;;;;18.54;70.99;97008.66;30001;983;1881;-62
2022/08/31 00:39:12;;;;;;;;;;;;;;;18.51;71.41;97019.50;30001;982;1885;-63
2022/08/31 00:39:44;;;;;;;;;;;;;;;18.47;73.83;97019.38;30001;982;1881;-62
2022/08/31 00:40:16;;;;;;;;;;;;;;;18.43;70.85;97018.47;30001;982;1885;-62
2022/08/31 00:40:46;;;;;;;;;;;;;;;18.41;72.36;97021.56;30001;986;1872;-62
2022/08/31 00:41:19;;;;;;;;;;;;;;;18.37;73.43;97019.81;30001;982;1864;-64
2022/08/31 00:41:50;;;;;;;;;;;;;;;18.35;71.77;97027.63;30001;982;1877;-63
2022/08/31 00:42:22;;;;;;;;;;;;;;;18.32;71.79;97033.78;30001;982;1886;-61
2022/08/31 00:42:53;;;;;;;;;;;;;;;18.26;72.13;97027.72;30001;983;1880;-66
2022/08/31 00:43:39;;;;;;;;;;;;;;;18.24;74.78;97026.44;30001;983;1885;-61
2022/08/31 00:44:11;;;;;;;;;;;;;;;18.14;76.66;97033.16;30001;983;1859;-61
2022/08/31 00:44:42;;;;;;;;;;;;;;;18.05;76.33;97035.16;30001;983;1880;-62
2022/08/31 00:45:13;;;;;;;;;;;;;;;17.98;76.76;97033.00;30001;983;1881;-65
2022/08/31 00:45:44;;;;;;;;;;;;;;;17.93;75.11;97033.19;30001;983;1885;-65
2022/08/31 00:46:35;;;;;;;;;;;;;;;17.94;74.64;97037.56;30001;983;1859;-60
2022/08/31 00:47:06;;;;;;;;;;;;;;;18.16;67.82;97030.88;30001;985;1881;-67
2022/08/31 00:47:37;;;;;;;;;;;;;;;18.28;67.46;97027.38;30001;982;1881;-62
2022/08/31 00:48:08;;;;;;;;;;;;;;;18.31;68.46;97037.69;30001;982;1885;-62
2022/08/31 00:49:04;;;;;;;;;;;;;;;18.27;68.54;97028.50;30001;982;1881;-64
2022/08/31 00:49:38;;;;;;;;;;;;;;;18.19;67.59;97037.63;30001;982;1881;-63
2022/08/31 00:50:10;;;;;;;;;;;;;;;18.19;67.10;97034.88;30001;983;1880;-64
2022/08/31 00:50:41;;;;;;;;;;;;;;;18.20;67.28;97036.50;30001;983;1885;-63
2022/08/31 00:51:12;;;;;;;;;;;;;;;18.15;67.79;97039.44;30001;983;1880;-63
2022/08/31 00:52:03;;;;;;;;;;;;;;;18.10;67.60;97037.72;30001;982;1863;-67
2022/08/31 00:52:39;;;;;;;;;;;;;;;18.06;69.18;97036.78;30001;983;1872;-64
2022/08/31 00:53:09;;;;;;;;;;;;;;;17.99;69.89;97040.09;30001;983;1885;-61
2022/08/31 00:53:41;;;;;;;;;;;;;;;17.95;70.44;97036.41;30001;983;1881;-64
2022/08/31 00:54:13;;;;;;;;;;;;;;;17.93;72.88;97046.13;30001;982;1885;-62
2022/08/31 00:54:47;;;;;;;;;;;;;;;17.87;74.23;97047.47;30001;982;1881;-64
2022/08/31 00:55:23;;;;;;;;;;;;;;;17.79;72.66;97043.66;30001;982;1885;-58
2022/08/31 00:55:54;;;;;;;;;;;;;;;17.77;74.49;97045.13;30001;982;1881;-63
2022/08/31 00:56:25;;;;;;;;;;;;;;;17.73;78.62;97055.97;30001;982;1886;-62
2022/08/31 00:57:00;;;;;;;;;;;;;;;17.67;79.44;97047.12;30001;982;1859;-62
2022/08/31 00:57:33;;;;;;;;;;;;;;;17.63;77.97;97048.91;30001;982;1881;-63
2022/08/31 00:58:09;;;;;;;;;;;;;;;17.65;75.78;97049.44;30001;983;1880;-63
2022/08/31 00:58:40;;;;;;;;;;;;;;;17.65;75.80;97059.59;30001;983;1885;-62
2022/08/31 00:59:15;;;;;;;;;;;;;;;17.60;76.87;97052.34;30001;983;1881;-64
2022/08/31 00:59:47;;;;;;;;;;;;;;;17.57;75.38;97053.00;30001;983;1885;-61
2022/08/31 01:00:21;;;;;;;;;;;;;;;17.55;74.43;97058.00;30001;983;1881;-61
2022/08/31 01:00:52;;;;;;;;;;;;;;;17.54;74.32;97059.16;30001;983;1863;-59
2022/08/31 01:01:23;;;;;;;;;;;;;;;17.51;76.17;97065.31;30001;983;1876;-63
2022/08/31 01:01:54;;;;;;;;;;;;;;;17.45;75.73;97060.34;30001;982;1885;-61
2022/08/31 01:02:25;;;;;;;;;;;;;;;17.41;74.86;97058.25;30001;982;1881;-61
2022/08/31 01:02:58;;;;;;;;;;;;;;;17.40;76.05;97064.88;30001;982;1885;-63
2022/08/31 01:03:32;;;;;;;;;;;;;;;17.35;76.75;97065.06;30001;982;1881;-65
2022/08/31 01:04:03;;;;;;;;;;;;;;;17.34;75.28;97066.19;30001;982;1864;-65
2022/08/31 01:04:34;;;;;;;;;;;;;;;17.34;75.63;97063.47;30001;983;1854;-61
2022/08/31 01:05:07;;;;;;;;;;;;;;;17.32;76.70;97063.00;30001;985;1885;-62
2022/08/31 01:05:40;;;;;;;;;;;;;;;17.28;75.54;97067.56;30001;983;1880;-66
2022/08/31 01:06:13;;;;;;;;;;;;;;;17.27;76.19;97071.44;30001;983;1885;-62
2022/08/31 01:06:45;;;;;;;;;;;;;;;17.25;76.23;97073.69;30001;983;1859;-63
2022/08/31 01:07:17;;;;;;;;;;;;;;;17.22;76.83;97068.88;30001;983;1881;-61
2022/08/31 01:07:49;;;;;;;;;;;;;;;17.21;76.07;97074.69;30001;983;1881;-63
2022/08/31 01:08:23;;;;;;;;;;;;;;;17.19;75.67;97069.53;30001;983;1885;-61
2022/08/31 01:08:56;;;;;;;;;;;;;;;17.20;77.73;97071.16;30001;983;1881;-62
2022/08/31 01:09:31;;;;;;;;;;;;;;;17.18;79.17;97061.63;30001;982;1794;-62
2022/08/31 01:10:07;;;;;;;;;;;;;;;17.15;79.05;97060.34;30001;982;1881;-61
2022/08/31 01:10:40;;;;;;;;;;;;;;;17.13;81.64;97059.09;30001;982;1885;-63
2022/08/31 01:11:12;;;;;;;;;;;;;;;17.06;82.95;97054.91;30001;982;1881;-63
2022/08/31 01:11:46;;;;;;;;;;;;;;;17.02;83.06;97066.87;30001;982;1885;-62
2022/08/31 01:12:17;;;;;;;;;;;;;;;16.98;84.98;97058.50;30001;983;1858;-64
2022/08/31 01:12:50;;;;;;;;;;;;;;;16.91;85.39;97057.44;30001;979;1893;-64
2022/08/31 01:13:22;;;;;;;;;;;;;;;16.87;85.89;97060.03;30001;983;1784;-64
2022/08/31 01:13:53;;;;;;;;;;;;;;;16.82;86.67;97059.41;30001;983;1885;-64
2022/08/31 01:14:25;;;;;;;;;;;;;;;16.77;86.80;97056.84;30001;983;1859;-63
2022/08/31 01:14:56;;;;;;;;;;;;;;;16.73;85.75;97051.19;30001;983;1881;-64
2022/08/31 01:15:28;;;;;;;;;;;;;;;16.71;85.37;97059.75;30001;983;1881;-63
2022/08/31 01:16:04;;;;;;;;;;;;;;;16.72;85.69;97057.81;30001;983;1885;-65
2022/08/31 01:16:41;;;;;;;;;;;;;;;16.70;85.28;97055.41;30001;983;1881;-65
2022/08/31 01:17:12;;;;;;;;;;;;;;;16.69;85.85;97056.53;30001;982;1885;-65
2022/08/31 01:17:43;;;;;;;;;;;;;;;16.68;86.85;97060.41;30001;982;1881;-65
2022/08/31 01:18:14;;;;;;;;;;;;;;;16.66;85.60;97062.66;30001;982;1885;-65
2022/08/31 01:18:47;;;;;;;;;;;;;;;16.66;85.92;97057.19;30001;982;1881;-60
2022/08/31 01:19:28;;;;;;;;;;;;;;;16.66;86.28;97068.16;30001;982;1886;-65
2022/08/31 01:20:29;;;;;;;;;;;;;;;16.63;86.03;97063.28;30001;983;1858;-66
2022/08/31 01:21:24;;;;;;;;;;;;;;;16.60;85.98;97063.97;30001;983;1876;-65
2022/08/31 01:22:07;;;;;;;;;;;;;;;16.55;86.39;97061.41;30001;983;1881;-65
2022/08/31 01:22:44;;;;;;;;;;;;;;;16.49;86.54;97062.69;30001;983;1885;-65
2022/08/31 01:23:19;;;;;;;;;;;;;;;16.50;86.07;97067.06;30001;983;1881;-64
2022/08/31 01:23:51;;;;;;;;;;;;;;;16.52;87.09;97066.72;30001;983;1885;-65
2022/08/31 01:24:24;;;;;;;;;;;;;;;16.50;88.71;97069.78;30001;983;1881;-64
2022/08/31 01:24:55;;;;;;;;;;;;;;;16.46;88.82;97062.53;30001;982;1864;-63
2022/08/31 01:25:26;;;;;;;;;;;;;;;16.43;88.41;97064.00;30001;982;1877;-64
2022/08/31 01:25:57;;;;;;;;;;;;;;;16.46;87.20;97057.88;30001;982;1885;-65
2022/08/31 01:26:29;;;;;;;;;;;;;;;16.50;86.48;97069.78;30001;982;1859;-66
2022/08/31 01:27:03;;;;;;;;;;;;;;;16.51;86.21;97065.91;30001;983;1880;-65
2022/08/31 01:27:35;;;;;;;;;;;;;;;16.49;86.48;97068.19;30001;983;1880;-67
2022/08/31 01:28:07;;;;;;;;;;;;;;;16.50;87.15;97068.97;30001;983;1885;-68
2022/08/31 01:28:38;;;;;;;;;;;;;;;16.46;87.30;97070.75;30001;983;1881;-69
2022/08/31 01:29:08;;;;;;;;;;;;;;;16.41;86.71;97067.06;30001;983;1863;-67
2022/08/31 01:29:40;;;;;;;;;;;;;;;16.38;86.56;97078.66;30001;983;1876;-66
2022/08/31 01:30:12;;;;;;;;;;;;;;;16.38;87.38;97083.34;30001;983;1885;-68
2022/08/31 01:30:55;;;;;;;;;;;;;;;16.36;87.66;97080.13;30001;983;1881;-67
2022/08/31 01:31:43;;;;;;;;;;;;;;;16.32;87.41;97085.44;30001;983;1885;-67
2022/08/31 01:32:17;;;;;;;;;;;;;;;16.28;88.10;97079.03;30001;982;1859;-68
2022/08/31 01:32:49;;;;;;;;;;;;;;;16.25;88.76;97078.88;30001;985;1881;-68
2022/08/31 01:33:20;;;;;;;;;;;;;;;16.22;88.23;97085.00;30001;971;1900;-67
2022/08/31 01:33:51;;;;;;;;;;;;;;;16.22;89.20;97085.00;30001;982;1886;-68
2022/08/31 01:34:22;;;;;;;;;;;;;;;16.21;89.48;97080.66;30001;968;1903;-70
2022/08/31 01:34:53;;;;;;;;;;;;;;;16.20;90.47;97079.03;30001;983;1885;-69
2022/08/31 01:35:24;;;;;;;;;;;;;;;16.17;90.95;97066.81;30001;983;1880;-70
2022/08/31 01:35:56;;;;;;;;;;;;;;;16.17;91.41;97075.00;30001;983;1863;-69
2022/08/31 01:36:27;;;;;;;;;;;;;;;16.14;90.72;97072.13;30001;983;1876;-68
2022/08/31 01:36:58;;;;;;;;;;;;;;;16.12;92.12;97068.91;30001;983;1885;-57
2022/08/31 01:37:29;;;;;;;;;;;;;;;16.08;91.56;97068.75;30001;983;1881;-70
2022/08/31 01:38:00;;;;;;;;;;;;;;;16.08;91.02;97069.53;30001;983;1885;-70
2022/08/31 01:38:33;;;;;;;;;;;;;;;16.11;91.60;97072.75;30001;983;1881;-70
2022/08/31 01:39:04;;;;;;;;;;;;;;;16.12;93.30;97074.37;30001;982;1863;-70
2022/08/31 01:39:35;;;;;;;;;;;;;;;16.09;94.09;97076.63;30001;982;1877;-55
2022/08/31 01:40:07;;;;;;;;;;;;;;;16.08;94.90;97071.47;30001;982;1885;-70
2022/08/31 01:40:44;;;;;;;;;;;;;;;16.06;94.06;97071.81;30001;982;1881;-70
2022/08/31 01:41:15;;;;;;;;;;;;;;;16.04;93.88;97074.06;30001;982;1885;-54
2022/08/31 01:41:46;;;;;;;;;;;;;;;16.02;93.84;97064.56;30001;982;1881;-69
2022/08/31 01:42:17;;;;;;;;;;;;;;;15.99;93.38;97068.75;30001;983;1885;-68
2022/08/31 01:42:49;;;;;;;;;;;;;;;15.97;93.63;97062.78;30001;983;1880;-70
2022/08/31 01:43:21;;;;;;;;;;;;;;;15.97;93.41;97068.25;30001;983;1885;-55
2022/08/31 01:43:52;;;;;;;;;;;;;;;15.95;92.68;97070.50;30001;983;1881;-68
2022/08/31 01:44:25;;;;;;;;;;;;;;;15.94;92.53;97071.63;30001;983;1863;-69
2022/08/31 01:44:56;;;;;;;;;;;;;;;15.92;93.36;97071.19;30001;983;1876;-68
2022/08/31 01:45:28;;;;;;;;;;;;;;;15.91;93.64;97069.56;30001;983;1885;-68
2022/08/31 01:46:03;;;;;;;;;;;;;;;15.88;94.22;97070.22;30001;983;1881;-68
2022/08/31 01:46:34;;;;;;;;;;;;;;;15.86;93.80;97072.47;30001;982;1885;-68
2022/08/31 01:47:04;;;;;;;;;;;;;;;15.84;93.58;97073.91;30001;982;1881;-69
2022/08/31 01:47:40;;;;;;;;;;;;;;;15.84;92.95;97073.91;30001;982;1885;-57
2022/08/31 01:48:12;;;;;;;;;;;;;;;15.83;92.55;97073.09;30001;982;1881;-68
2022/08/31 01:48:43;;;;;;;;;;;;;;;15.84;92.92;97066.50;30001;982;1886;-69
2022/08/31 01:49:15;;;;;;;;;;;;;;;15.86;93.41;97069.72;30001;982;1881;-66
2022/08/31 01:49:47;;;;;;;;;;;;;;;15.87;94.07;97063.12;30001;983;1863;-57
2022/08/31 01:50:18;;;;;;;;;;;;;;;15.88;94.94;97074.87;30001;983;1876;-56
2022/08/31 01:50:49;;;;;;;;;;;;;;;15.86;94.99;97067.00;30001;983;1884;-67
2022/08/31 01:51:21;;;;;;;;;;;;;;;15.86;95.33;97067.00;30001;983;1881;-66
2022/08/31 01:51:52;;;;;;;;;;;;;;;15.84;95.20;97061.03;30001;983;1885;-64
2022/08/31 01:52:24;;;;;;;;;;;;;;;15.84;94.38;97063.78;30001;983;1881;-56
2022/08/31 01:52:56;;;;;;;;;;;;;;;15.85;94.36;97068.13;30001;983;1885;-55
2022/08/31 01:53:27;;;;;;;;;;;;;;;15.84;94.54;97058.31;30001;983;1881;-64
2022/08/31 01:53:58;;;;;;;;;;;;;;;15.85;94.73;97062.66;30001;982;1885;-66
2022/08/31 01:54:30;;;;;;;;;;;;;;;15.86;94.49;97064.25;30001;982;1881;-67
2022/08/31 01:55:04;;;;;;;;;;;;;;;15.85;95.57;97059.91;30001;982;1863;-65
2022/08/31 01:55:35;;;;;;;;;;;;;;;15.86;95.35;97067.00;30001;982;1877;-65
2022/08/31 01:56:13;;;;;;;;;;;;;;;15.87;95.66;97068.59;30001;982;1886;-63
2022/08/31 01:56:45;;;;;;;;;;;;;;;15.86;95.06;97068.94;30001;982;1881;-65
2022/08/31 01:57:15;;;;;;;;;;;;;;;15.86;95.29;97067.00;30001;983;1885;-65
2022/08/31 01:57:46;;;;;;;;;;;;;;;15.85;95.21;97070.84;30001;983;1880;-65
2022/08/31 01:58:17;;;;;;;;;;;;;;;15.83;94.78;97067.63;30001;983;1885;-64
2022/08/31 01:58:48;;;;;;;;;;;;;;;15.82;94.30;97068.75;30001;983;1881;-65
2022/08/31 01:59:22;;;;;;;;;;;;;;;15.83;93.84;97073.09;30001;983;1885;-65
2022/08/31 01:59:53;;;;;;;;;;;;;;;15.81;93.16;97072.63;30001;983;1881;-65
2022/08/31 02:00:24;;;;;;;;;;;;;;;15.83;93.48;97077.78;30001;983;1863;-64
2022/08/31 02:00:55;;;;;;;;;;;;;;;15.82;93.54;97066.03;30001;983;1876;-64
2022/08/31 02:01:29;;;;;;;;;;;;;;;15.80;94.30;97065.53;30001;982;1885;-65
2022/08/31 02:02:00;;;;;;;;;;;;;;;15.77;94.57;97070.84;30001;982;1881;-65
2022/08/31 02:02:31;;;;;;;;;;;;;;;15.74;94.39;97067.63;30001;982;1885;-66
2022/08/31 02:03:03;;;;;;;;;;;;;;;15.73;94.01;97067.94;30001;982;1882;-65
2022/08/31 02:03:35;;;;;;;;;;;;;;;15.74;94.83;97075.84;30001;985;1886;-66
2022/08/31 02:04:07;;;;;;;;;;;;;;;15.73;94.80;97070.69;30001;987;1881;-65
2022/08/31 02:04:38;;;;;;;;;;;;;;;15.74;94.74;97070.38;30001;982;1886;-66
2022/08/31 02:05:09;;;;;;;;;;;;;;;15.75;94.96;97071.97;30001;983;1881;-66
2022/08/31 02:05:40;;;;;;;;;;;;;;;15.75;95.40;97071.16;30001;983;1863;-68
2022/08/31 02:06:11;;;;;;;;;;;;;;;15.77;95.59;97068.13;30001;983;1876;-55
2022/08/31 02:06:44;;;;;;;;;;;;;;;15.77;95.69;97068.91;30001;983;1885;-64
2022/08/31 02:07:15;;;;;;;;;;;;;;;15.76;95.15;97067.31;30001;983;1881;-66
2022/08/31 02:07:46;;;;;;;;;;;;;;;15.77;95.04;97066.19;30001;983;1885;-65
2022/08/31 02:08:17;;;;;;;;;;;;;;;15.78;94.71;97064.25;30001;983;1881;-65
2022/08/31 02:08:48;;;;;;;;;;;;;;;15.78;94.80;97065.06;30001;983;1885;-65
2022/08/31 02:09:22;;;;;;;;;;;;;;;15.78;94.47;97062.31;30001;982;1881;-66
2022/08/31 02:09:53;;;;;;;;;;;;;;;15.80;94.41;97062.81;30001;982;1885;-66
2022/08/31 02:10:24;;;;;;;;;;;;;;;15.81;94.74;97067.16;30001;982;1881;-67
2022/08/31 02:10:55;;;;;;;;;;;;;;;15.81;94.59;97064.41;30001;982;1864;-56
2022/08/31 02:11:26;;;;;;;;;;;;;;;15.80;94.49;97065.53;30001;957;1902;-66
2022/08/31 02:11:57;;;;;;;;;;;;;;;15.81;94.60;97066.34;30001;983;1885;-66
2022/08/31 02:12:27;;;;;;;;;;;;;;;15.81;94.18;97064.41;30001;983;1880;-67
2022/08/31 02:12:58;;;;;;;;;;;;;;;15.80;94.16;97062.81;30001;983;1885;-65
2022/08/31 02:13:29;;;;;;;;;;;;;;;15.80;94.12;97062.81;30001;983;1881;-68
2022/08/31 02:14:00;;;;;;;;;;;;;;;15.81;94.43;97066.34;30001;983;1885;-67
2022/08/31 02:14:30;;;;;;;;;;;;;;;15.81;94.31;97058.13;30001;983;1881;-67
2022/08/31 02:15:02;;;;;;;;;;;;;;;15.81;95.10;97064.41;30001;983;1885;-67
2022/08/31 02:15:33;;;;;;;;;;;;;;;15.81;95.06;97063.62;30001;986;1881;-68
2022/08/31 02:16:04;;;;;;;;;;;;;;;15.81;95.27;97067.16;30001;983;1863;-69
2022/08/31 02:16:36;;;;;;;;;;;;;;;15.84;95.12;97068.44;30001;982;1877;-67
2022/08/31 02:17:07;;;;;;;;;;;;;;;15.85;95.58;97067.31;30001;982;1885;-68
2022/08/31 02:17:39;;;;;;;;;;;;;;;15.84;95.27;97063.78;30001;982;1881;-66
2022/08/31 02:18:09;;;;;;;;;;;;;;;15.86;95.63;97061.53;30001;982;1886;-66
2022/08/31 02:18:40;;;;;;;;;;;;;;;15.87;96.13;97060.41;30001;982;1881;-66
2022/08/31 02:19:11;;;;;;;;;;;;;;;15.86;95.85;97061.53;30001;983;1885;-68
2022/08/31 02:19:42;;;;;;;;;;;;;;;15.86;96.14;97061.53;30001;983;1880;-67
2022/08/31 02:20:14;;;;;;;;;;;;;;;15.86;96.54;97060.72;30001;973;1904;-69
2022/08/31 02:20:45;;;;;;;;;;;;;;;15.85;95.84;97059.91;30001;983;1881;-67
2022/08/31 02:21:19;;;;;;;;;;;;;;;15.86;95.93;97055.25;30001;983;1863;-68
2022/08/31 02:21:50;;;;;;;;;;;;;;;15.87;95.65;97056.84;30001;983;1876;-56
2022/08/31 02:22:20;;;;;;;;;;;;;;;15.92;95.31;97057.50;30001;983;1885;-69
2022/08/31 02:22:51;;;;;;;;;;;;;;;15.94;95.25;97052.47;30001;983;1881;-67
2022/08/31 02:23:22;;;;;;;;;;;;;;;15.94;94.95;97057.97;30001;983;1885;-67
2022/08/31 02:23:53;;;;;;;;;;;;;;;16.04;93.90;97049.41;30001;979;1881;-69
2022/08/31 02:24:24;;;;;;;;;;;;;;;16.03;93.76;97056.03;30001;982;1885;-66
2022/08/31 02:24:54;;;;;;;;;;;;;;;16.03;92.82;97056.03;30001;982;1881;-69
2022/08/31 02:25:25;;;;;;;;;;;;;;;16.03;93.27;97056.03;30001;982;1885;-67
2022/08/31 02:25:56;;;;;;;;;;;;;;;16.02;92.70;97059.87;30001;982;1881;-67
2022/08/31 02:26:27;;;;;;;;;;;;;;;16.02;92.68;97059.87;30001;982;1864;-65
2022/08/31 02:26:58;;;;;;;;;;;;;;;16.03;92.65;97055.22;30001;983;1854;-69
2022/08/31 02:27:29;;;;;;;;;;;;;;;16.01;92.67;97052.81;30001;983;1885;-67
2022/08/31 02:28:00;;;;;;;;;;;;;;;16.00;92.85;97056.66;30001;983;1880;-67
2022/08/31 02:28:31;;;;;;;;;;;;;;;15.99;93.71;97054.25;30001;983;1885;-67
2022/08/31 02:29:02;;;;;;;;;;;;;;;15.97;93.39;97051.03;30001;983;1881;-67
2022/08/31 02:29:32;;;;;;;;;;;;;;;15.96;93.66;97060.38;30001;983;1885;-67
2022/08/31 02:30:08;;;;;;;;;;;;;;;15.94;93.74;97052.47;30001;983;1881;-66
2022/08/31 02:30:40;;;;;;;;;;;;;;;15.93;94.34;97058.31;30001;983;1885;-66
2022/08/31 02:31:11;;;;;;;;;;;;;;;15.91;94.36;97055.88;30001;983;1881;-68
2022/08/31 02:31:43;;;;;;;;;;;;;;;15.90;94.74;97062.50;30001;982;1885;-68
2022/08/31 02:32:14;;;;;;;;;;;;;;;15.90;94.09;97062.50;30001;982;1859;-67
2022/08/31 02:32:45;;;;;;;;;;;;;;;15.89;94.05;97060.06;30001;982;1881;-66
2022/08/31 02:33:16;;;;;;;;;;;;;;;15.90;94.11;97056.22;30001;982;1859;-67
2022/08/31 02:33:47;;;;;;;;;;;;;;;15.88;94.34;97058.47;30001;982;1881;-67
2022/08/31 02:34:18;;;;;;;;;;;;;;;15.88;94.07;97061.19;30001;983;1880;-67
2022/08/31 02:34:50;;;;;;;;;;;;;;;15.88;94.39;97064.75;30001;983;1885;-68
2022/08/31 02:35:21;;;;;;;;;;;;;;;15.87;93.98;97063.12;30001;983;1881;-66
2022/08/31 02:35:52;;;;;;;;;;;;;;;15.87;93.97;97057.66;30001;986;1885;-67
2022/08/31 02:36:23;;;;;;;;;;;;;;;15.87;94.44;97063.12;30001;983;1881;-66
2022/08/31 02:36:55;;;;;;;;;;;;;;;15.87;94.27;97068.59;30001;983;1863;-66
2022/08/31 02:37:26;;;;;;;;;;;;;;;15.86;94.56;97072.47;30001;983;1855;-69
2022/08/31 02:37:57;;;;;;;;;;;;;;;15.86;94.88;97067.00;30001;983;1885;-68
2022/08/31 02:38:29;;;;;;;;;;;;;;;15.85;94.21;97068.13;30001;983;1881;-56
2022/08/31 02:39:00;;;;;;;;;;;;;;;15.85;95.30;97062.66;30001;983;1885;-67
2022/08/31 02:39:31;;;;;;;;;;;;;;;15.83;95.10;97062.16;30001;982;1785;-57
2022/08/31 02:40:03;;;;;;;;;;;;;;;15.84;95.11;97066.50;30001;982;1886;-68
2022/08/31 02:40:37;;;;;;;;;;;;;;;15.85;95.41;97059.91;30001;982;1881;-56
2022/08/31 02:41:08;;;;;;;;;;;;;;;15.86;96.10;97060.72;30001;982;1886;-68
2022/08/31 02:41:39;;;;;;;;;;;;;;;15.85;96.07;97059.09;30001;983;1858;-67
2022/08/31 02:42:09;;;;;;;;;;;;;;;15.85;96.12;97057.19;30001;983;1880;-68
2022/08/31 02:42:40;;;;;;;;;;;;;;;15.85;95.67;97059.91;30001;983;1881;-66
2022/08/31 02:43:11;;;;;;;;;;;;;;;15.86;95.46;97060.72;30001;983;1885;-66
2022/08/31 02:43:42;;;;;;;;;;;;;;;15.87;95.08;97056.84;30001;971;1899;-66
2022/08/31 02:44:13;;;;;;;;;;;;;;;15.87;95.45;97062.31;30001;983;1885;-67
2022/08/31 02:44:45;;;;;;;;;;;;;;;15.87;95.34;97063.12;30001;983;1881;-56
2022/08/31 02:45:19;;;;;;;;;;;;;;;15.90;95.44;97067.97;30001;983;1885;-65
2022/08/31 02:45:51;;;;;;;;;;;;;;;15.91;95.26;97064.09;30001;982;1881;-64
2022/08/31 02:46:21;;;;;;;;;;;;;;;15.93;95.85;97072.00;30001;982;1885;-66
2022/08/31 02:46:52;;;;;;;;;;;;;;;15.91;95.47;97074.25;30001;982;1859;-67
2022/08/31 02:47:23;;;;;;;;;;;;;;;15.89;95.76;97066.34;30001;985;1888;-67
2022/08/31 02:47:54;;;;;;;;;;;;;;;15.88;95.44;97069.41;30001;985;1881;-67
2022/08/31 02:48:25;;;;;;;;;;;;;;;15.88;95.72;97058.47;30001;986;1876;-68
2022/08/31 02:48:56;;;;;;;;;;;;;;;15.87;95.94;97062.31;30001;982;1886;-67
2022/08/31 02:49:27;;;;;;;;;;;;;;;15.87;96.12;97063.12;30001;983;1880;-66
2022/08/31 02:50:00;;;;;;;;;;;;;;;15.87;95.66;97068.59;30001;983;1885;-69
2022/08/31 02:50:31;;;;;;;;;;;;;;;15.86;95.55;97061.53;30001;983;1881;-67
2022/08/31 02:51:06;;;;;;;;;;;;;;;15.87;95.91;97068.59;30001;983;1885;-67
2022/08/31 02:51:38;;;;;;;;;;;;;;;15.87;96.16;97074.06;30001;983;1881;-67
2022/08/31 02:52:09;;;;;;;;;;;;;;;15.88;96.71;97072.94;30001;983;1863;-66
2022/08/31 02:52:41;;;;;;;;;;;;;;;15.86;96.57;97069.72;30001;983;1876;-67
2022/08/31 02:53:13;;;;;;;;;;;;;;;15.86;96.29;97075.22;30001;983;1885;-66
2022/08/31 02:53:44;;;;;;;;;;;;;;;15.85;96.19;97070.84;30001;982;1881;-68
2022/08/31 02:54:16;;;;;;;;;;;;;;;15.86;96.13;97072.47;30001;982;1885;-67
2022/08/31 02:54:47;;;;;;;;;;;;;;;15.86;96.34;97071.66;30001;982;1881;-67
2022/08/31 02:55:21;;;;;;;;;;;;;;;15.85;96.09;97070.84;30001;982;1886;-68
2022/08/31 02:55:52;;;;;;;;;;;;;;;15.86;96.37;97067.00;30001;982;1881;-66
2022/08/31 02:56:24;;;;;;;;;;;;;;;15.86;96.29;97069.72;30001;982;1864;-67